Time;durP1;ratioP1;P1;durP2;ratioP2;P2;SDS_P1;SDS_P2;PMS_P1;PMS_P2;Temp;Humidity;BMP_temperature;BMP_pressure;BME280_temperature;BME280_humidity;BME280_pressure;Samples;Min_cycle;Max_cycle;Signal;HPM_P1;HPM_P2
2024/01/16 00:00:58;;;;;;;84.03;36.40;;;;;;;-144.30;82.03;86696.78;5049425;28;20213;-59
2024/01/16 00:03:26;;;;;;;84.77;37.87;;;;;;;-144.30;82.11;86684.84;5049887;28;20685;-59
2024/01/16 00:05:53;;;;;;;79.03;37.33;;;;;;;-144.30;82.01;86738.56;5050067;28;20657;-59
2024/01/16 00:08:20;;;;;;;75.83;35.23;;;;;;;-144.30;81.93;86692.81;5049715;28;20207;-59
2024/01/16 00:10:47;;;;;;;76.90;37.07;;;;;;;-144.30;81.45;86724.63;5049684;28;20210;-59
2024/01/16 00:13:14;;;;;;;77.50;36.63;;;;;;;-144.30;81.59;86708.72;5049541;28;20197;-59
2024/01/16 00:15:41;;;;;;;84.63;37.20;;;;;;;-144.30;81.97;86720.66;5049391;28;20224;-60
2024/01/16 00:18:09;;;;;;;84.07;38.17;;;;;;;-144.30;82.32;86740.53;5049456;28;20213;-61
2024/01/16 00:20:37;;;;;;;82.13;38.33;;;;;;;-144.30;83.15;86696.78;5049610;28;20245;-62
2024/01/16 00:23:04;;;;;;;84.90;38.47;;;;;;;-144.30;83.00;87719.13;5049713;28;20205;-62
2024/01/16 00:25:31;;;;;;;89.00;39.17;;;;;;;-144.30;82.93;86661.00;5049412;28;20200;-62
2024/01/16 00:27:58;;;;;;;80.37;37.13;;;;;;;-144.30;82.76;86694.81;5049498;28;20594;-61
2024/01/16 00:30:25;;;;;;;81.53;36.97;;;;;;;-144.30;82.75;86718.66;5049535;28;20196;-60
2024/01/16 00:32:52;;;;;;;81.07;37.80;;;;;;;-144.30;83.00;86732.59;5049647;28;20290;-60
2024/01/16 00:35:19;;;;;;;84.90;39.37;;;;;;;-144.30;83.29;86732.59;5049440;28;20698;-61
2024/01/16 00:37:47;;;;;;;87.37;40.87;;;;;;;-144.30;83.21;86706.72;5049626;28;20282;-62
2024/01/16 00:40:14;;;;;;;87.53;40.57;;;;;;;-144.30;83.90;86742.53;5049288;28;20290;-61
2024/01/16 00:42:41;;;;;;;84.03;38.83;;;;;;;-144.30;83.74;86702.75;5049382;28;20197;-58
2024/01/16 00:45:08;;;;;;;87.93;39.70;;;;;;;-144.30;83.40;86736.56;5049527;28;20582;-59
2024/01/16 00:47:35;;;;;;;81.93;38.87;;;;;;;-144.30;83.34;86724.63;5049374;28;20205;-61
2024/01/16 00:50:02;;;;;;;83.43;37.73;;;;;;;-144.30;83.14;86692.81;5065516;28;20199;-61
2024/01/16 00:52:29;;;;;;;81.47;38.27;;;;;;;-144.30;83.22;86716.69;5070477;28;20196;-61
2024/01/16 00:54:57;;;;;;;80.80;38.03;;;;;;;-144.30;82.08;86726.63;5073303;28;20216;-61
2024/01/16 00:57:24;;;;;;;81.90;37.53;;;;;;;-144.30;81.98;86734.56;5072980;28;20194;-60
2024/01/16 00:59:51;;;;;;;80.10;37.63;;;;;;;-144.30;81.87;86728.59;5073445;28;20234;-61
2024/01/16 01:02:18;;;;;;;84.10;38.97;;;;;;;-144.30;81.34;86724.63;5072767;28;20243;-61
2024/01/16 01:04:45;;;;;;;85.37;38.53;;;;;;;-144.30;81.88;86700.78;5072943;28;20198;-62
2024/01/16 01:07:14;;;;;;;84.00;40.33;;;;;;;-144.30;82.72;86726.63;5072907;28;20198;-60
2024/01/16 01:09:42;;;;;;;83.63;38.53;;;;;;;-144.30;82.78;86688.84;5072883;28;20593;-61
2024/01/16 01:12:10;;;;;;;88.87;40.93;;;;;;;-144.30;82.93;86768.38;5072709;28;20262;-61
2024/01/16 01:14:37;;;;;;;88.97;41.57;;;;;;;-144.30;82.95;86748.50;5072868;28;20638;-61
2024/01/16 01:17:05;;;;;;;92.30;40.63;;;;;;;-144.30;83.63;86714.69;5072840;28;20198;-62
2024/01/16 01:19:32;;;;;;;85.10;40.30;;;;;;;-144.30;84.19;86756.44;5072579;28;20199;-61
2024/01/16 01:21:58;;;;;;;85.07;39.80;;;;;;;-144.30;84.55;86724.63;5072790;28;20290;-61
2024/01/16 01:24:25;;;;;;;82.93;39.63;;;;;;;-144.30;84.09;86740.53;5072527;28;20196;-62
2024/01/16 01:26:52;;;;;;;82.27;39.33;;;;;;;-144.30;84.00;86724.63;5072663;28;20206;-63
2024/01/16 01:29:20;;;;;;;81.50;37.60;;;;;;;-144.30;83.61;86766.41;5072382;28;20197;-62
2024/01/16 01:31:48;;;;;;;83.30;38.83;;;;;;;-144.30;83.57;86726.63;5072461;28;20205;-62
2024/01/16 01:34:16;;;;;;;83.30;36.93;;;;;;;-144.30;83.37;86724.63;5072364;28;20276;-61
2024/01/16 01:36:43;;;;;;;81.83;38.30;;;;;;;-144.30;83.29;86728.59;5072444;28;20569;-62
2024/01/16 01:39:11;;;;;;;77.93;36.90;;;;;;;-144.30;83.16;86768.38;5072237;28;20200;-61
2024/01/16 01:41:38;;;;;;;78.07;35.70;;;;;;;-144.30;83.80;86728.59;5072693;28;20194;-59
2024/01/16 01:44:06;;;;;;;71.43;34.97;;;;;;;-144.30;83.80;86732.59;5072297;28;20198;-59
2024/01/16 01:46:36;;;;;;;73.90;34.80;;;;;;;-144.30;84.11;86728.59;5072226;28;20195;-60
2024/01/16 01:49:04;;;;;;;80.50;35.90;;;;;;;-144.30;84.03;86744.53;5072238;28;20221;-60
2024/01/16 01:51:31;;;;;;;76.50;35.60;;;;;;;-144.30;84.12;86756.44;5072180;28;20202;-60
2024/01/16 01:53:59;;;;;;;75.00;36.43;;;;;;;-144.30;84.31;86736.56;5072094;28;20193;-60
2024/01/16 01:56:26;;;;;;;83.93;36.53;;;;;;;-144.30;84.63;86704.75;5072121;28;20196;-60
2024/01/16 01:58:55;;;;;;;82.43;36.50;;;;;;;-144.30;85.06;86744.53;5072185;28;20207;-59
2024/01/16 02:01:23;;;;;;;79.40;36.33;;;;;;;-144.30;84.84;86744.53;5071363;28;20229;-60
2024/01/16 02:03:53;;;;;;;81.83;36.47;;;;;;;-144.30;84.68;86710.72;5071419;28;20285;-59
2024/01/16 02:06:20;;;;;;;77.83;34.80;;;;;;;-144.30;84.69;86724.63;5071749;28;20194;-59
2024/01/16 02:08:47;;;;;;;75.20;34.30;;;;;;;-144.30;84.75;86740.53;5072149;28;20216;-59
2024/01/16 02:11:14;;;;;;;73.43;35.83;;;;;;;-144.30;85.19;86784.28;5071792;28;20205;-59
2024/01/16 02:13:42;;;;;;;75.13;35.30;;;;;;;-144.30;85.96;86533.72;5071719;28;20205;-59
2024/01/16 02:16:18;;;;;;;84.03;36.13;;;;;;;-144.30;86.43;86738.56;5071557;28;20222;-59
2024/01/16 02:18:45;;;;;;;80.87;36.13;;;;;;;-144.30;86.06;86748.50;5071701;28;20206;-60
2024/01/16 02:21:18;;;;;;;77.70;35.63;;;;;;;-144.30;86.98;86764.41;5071686;28;20206;-60
2024/01/16 02:23:46;;;;;;;74.90;35.17;;;;;;;-144.30;86.71;86742.53;5071754;28;20193;-60
2024/01/16 02:26:15;;;;;;;76.30;37.00;;;;;;;-144.30;86.51;86893.69;5071633;28;20199;-60
2024/01/16 02:28:42;;;;;;;77.20;37.30;;;;;;;-144.30;86.40;86718.66;5071616;28;20715;-60
2024/01/16 02:31:09;;;;;;;77.40;35.83;;;;;;;-144.30;86.06;86680.88;5071389;28;20234;-60
2024/01/16 02:33:36;;;;;;;74.60;35.33;;;;;;;-144.30;86.22;86730.59;5071289;28;20213;-59
2024/01/16 02:36:03;;;;;;;68.87;34.03;;;;;;;-144.30;85.18;86762.41;5071307;28;20226;-59
2024/01/16 02:38:29;;;;;;;74.60;35.63;;;;;;;-144.30;85.60;86764.41;5071272;28;20200;-59
2024/01/16 02:40:58;;;;;;;75.23;35.80;;;;;;;-144.30;85.74;86762.41;5071105;28;20201;-59
2024/01/16 02:43:26;;;;;;;71.30;35.67;;;;;;;-144.30;85.93;86772.34;5071174;28;20583;-59
2024/01/16 02:45:53;;;;;;;74.00;35.03;;;;;;;-144.30;85.60;86736.56;5070973;28;20194;-61
2024/01/16 02:48:20;;;;;;;72.53;34.63;;;;;;;-144.30;85.59;86760.44;5071108;28;20229;-58
2024/01/16 02:50:47;;;;;;;75.67;35.43;;;;;;;-144.30;84.65;86748.50;5071116;28;20197;-60
2024/01/16 02:53:14;;;;;;;71.60;34.90;;;;;;;-144.30;84.72;86750.50;5070812;28;20199;-59
2024/01/16 02:55:41;;;;;;;67.37;33.20;;;;;;;-144.30;85.04;86716.69;5070987;28;20640;-62
2024/01/16 02:58:10;;;;;;;66.43;32.33;;;;;;;-144.30;84.56;86680.88;5070755;28;20207;-62
2024/01/16 03:00:37;;;;;;;68.50;33.73;;;;;;;-144.30;83.69;86744.53;5070770;28;20340;-60
2024/01/16 03:03:04;;;;;;;67.47;32.57;;;;;;;-144.30;83.15;86712.69;5070687;28;20299;-59
2024/01/16 03:05:31;;;;;;;64.83;32.67;;;;;;;-144.30;83.39;86744.53;5070581;28;20198;-60
2024/01/16 03:07:58;;;;;;;72.43;34.53;;;;;;;-144.30;82.34;86724.63;5070895;28;20211;-59
2024/01/16 03:10:26;;;;;;;67.83;32.87;;;;;;;-144.30;81.39;86706.72;5070519;28;20728;-60
2024/01/16 03:12:53;;;;;;;68.73;31.83;;;;;;;-144.30;81.21;86684.84;5070483;28;20208;-59
2024/01/16 03:15:21;;;;;;;68.33;32.27;;;;;;;-144.30;80.40;86694.81;5069600;28;20220;-63
2024/01/16 03:17:48;;;;;;;63.00;31.97;;;;;;;-144.30;79.97;86730.59;5070593;28;20199;-62
2024/01/16 03:20:16;;;;;;;69.23;33.27;;;;;;;-144.30;80.93;86676.91;5070333;28;20257;-62
2024/01/16 03:22:44;;;;;;;69.83;33.50;;;;;;;-144.30;81.33;86730.59;5070505;28;20286;-62
2024/01/16 03:25:12;;;;;;;64.57;32.47;;;;;;;-144.30;81.65;86736.56;5070381;28;20193;-62
2024/01/16 03:27:39;;;;;;;74.50;34.50;;;;;;;-144.30;81.67;86752.47;5070614;28;20675;-59
2024/01/16 03:30:08;;;;;;;68.70;33.53;;;;;;;-144.30;81.81;86589.41;5070538;28;20205;-61
2024/01/16 03:32:36;;;;;;;76.30;35.53;;;;;;;-144.30;81.69;86744.53;5070620;28;20265;-62
2024/01/16 03:35:03;;;;;;;78.03;36.17;;;;;;;-144.30;81.11;86724.63;5070315;28;20231;-61
2024/01/16 03:37:30;;;;;;;73.67;35.10;;;;;;;-144.30;82.17;86744.53;5070147;28;20225;-62
2024/01/16 03:39:58;;;;;;;72.07;34.87;;;;;;;-144.30;81.99;86692.81;5070159;28;20229;-59
2024/01/16 03:42:25;;;;;;;76.63;34.97;;;;;;;-144.30;82.25;86696.78;5070239;28;20691;-60
2024/01/16 03:44:52;;;;;;;73.17;34.07;;;;;;;-144.30;82.06;86716.69;5070310;28;20199;-61
2024/01/16 03:47:19;;;;;;;71.80;33.83;;;;;;;-144.30;82.15;86728.59;5070027;28;20239;-60
2024/01/16 03:49:47;;;;;;;63.73;33.63;;;;;;;-144.30;81.81;86732.59;5070156;28;20199;-59
2024/01/16 03:52:14;;;;;;;81.80;35.00;;;;;;;-144.30;81.89;86738.56;5069975;28;20205;-61
2024/01/16 03:54:41;;;;;;;74.87;34.87;;;;;;;-144.30;82.35;86736.56;5070077;28;20196;-59
2024/01/16 03:57:08;;;;;;;68.80;34.10;;;;;;;-144.30;82.23;86744.53;5053042;28;20210;-61
2024/01/16 03:59:38;;;;;;;77.07;35.13;;;;;;;-144.30;82.57;86599.34;5049674;28;20235;-60
2024/01/16 04:02:05;;;;;;;76.40;34.57;;;;;;;-144.30;82.53;86718.66;5049460;28;20285;-61
2024/01/16 04:04:32;;;;;;;78.13;36.10;;;;;;;-144.30;82.03;86736.56;5049683;28;20199;-61
2024/01/16 04:07:01;;;;;;;80.70;37.10;;;;;;;-144.30;82.08;86762.41;5049480;28;20237;-61
2024/01/16 04:09:28;;;;;;;79.20;38.37;;;;;;;-144.30;82.22;86764.41;5049358;28;20194;-60
2024/01/16 04:11:54;;;;;;;79.50;36.60;;;;;;;-144.30;82.03;86708.72;5048795;28;20199;-61
2024/01/16 04:14:21;;;;;;;83.53;39.27;;;;;;;-144.30;82.90;86712.69;5048806;28;20196;-61
2024/01/16 04:16:48;;;;;;;76.83;38.47;;;;;;;-144.30;82.47;86722.66;5048287;28;20220;-62
2024/01/16 04:19:15;;;;;;;82.33;38.87;;;;;;;-144.30;82.87;86732.59;5049431;28;20209;-61
2024/01/16 04:21:42;;;;;;;80.40;39.13;;;;;;;-144.30;82.42;86736.56;5049563;28;20697;-61
2024/01/16 04:24:10;;;;;;;88.47;38.40;;;;;;;-144.30;82.57;86708.72;5049903;28;20199;-62
2024/01/16 04:26:38;;;;;;;86.73;38.87;;;;;;;-144.30;83.12;86720.66;5050937;28;20199;-62
2024/01/16 04:29:05;;;;;;;80.67;37.70;;;;;;;-144.30;83.15;86702.75;5053855;28;20200;-62
2024/01/16 04:31:33;;;;;;;75.40;36.93;;;;;;;-144.30;82.75;86708.72;5053269;28;20204;-62
2024/01/16 04:34:00;;;;;;;73.93;35.57;;;;;;;-144.30;83.06;86756.44;5053409;28;20200;-62
2024/01/16 04:36:27;;;;;;;72.30;34.53;;;;;;;-144.30;82.62;86708.72;5063576;28;20240;-61
2024/01/16 04:38:54;;;;;;;66.57;33.70;;;;;;;-144.30;82.76;86728.59;5073322;28;20288;-62
2024/01/16 04:41:22;;;;;;;67.10;33.33;;;;;;;-144.30;82.71;86748.50;5073093;28;20208;-62
2024/01/16 04:43:50;;;;;;;62.43;31.57;;;;;;;-144.30;82.31;86661.00;5073005;28;20199;-62
2024/01/16 04:46:17;;;;;;;67.80;32.03;;;;;;;-144.30;81.60;86732.59;5073059;28;20671;-61
2024/01/16 04:48:46;;;;;;;62.60;32.20;;;;;;;-144.30;81.08;86740.53;5073106;28;20328;-62
2024/01/16 04:51:13;;;;;;;61.80;32.10;;;;;;;-144.30;81.56;86704.75;5071958;28;20215;-61
2024/01/16 04:53:40;;;;;;;64.83;32.10;;;;;;;-144.30;81.45;86740.53;5073057;28;20208;-60
2024/01/16 04:56:07;;;;;;;68.20;33.07;;;;;;;-144.30;81.11;86690.81;5072406;28;20235;-62
2024/01/16 04:58:35;;;;;;;69.97;32.13;;;;;;;-144.30;81.76;86684.84;5072569;28;20197;-60
2024/01/16 05:01:04;;;;;;;59.67;31.43;;;;;;;-144.30;81.62;86770.38;5072454;28;20327;-59
2024/01/16 05:03:31;;;;;;;62.20;31.03;;;;;;;-144.30;81.41;86732.59;5073011;28;20201;-60
2024/01/16 05:05:58;;;;;;;57.23;30.20;;;;;;;-144.30;80.60;86718.66;5072836;28;20233;-60
2024/01/16 05:08:25;;;;;;;56.27;29.33;;;;;;;-144.30;80.55;86708.72;5072726;28;20206;-61
2024/01/16 05:10:52;;;;;;;60.03;29.53;;;;;;;-144.30;80.11;86716.69;5072781;28;20203;-60
2024/01/16 05:13:18;;;;;;;63.27;30.43;;;;;;;-144.30;79.71;86706.72;5072180;28;20294;-60
2024/01/16 05:15:47;;;;;;;59.63;28.60;;;;;;;-144.30;79.33;86762.41;5071710;28;20235;-61
2024/01/16 05:18:14;;;;;;;49.63;27.37;;;;;;;-144.30;78.47;86694.81;5072871;28;20561;-60
2024/01/16 05:20:41;;;;;;;53.67;26.27;;;;;;;-144.30;78.43;86712.69;5071429;28;20206;-60
2024/01/16 05:23:08;;;;;;;47.47;25.67;;;;;;;-144.30;77.95;86744.53;5072396;28;20286;-61
2024/01/16 05:25:35;;;;;;;50.57;28.03;;;;;;;-144.30;77.77;86726.63;5072254;28;20195;-60
2024/01/16 05:28:02;;;;;;;53.67;25.70;;;;;;;-144.30;77.57;86748.50;5072182;28;20209;-63
2024/01/16 05:30:29;;;;;;;50.70;25.27;;;;;;;-144.30;77.43;86722.66;5071943;28;20196;-63
2024/01/16 05:33:00;;;;;;;51.80;24.03;;;;;;;-144.30;78.18;86726.63;5072424;28;20650;-61
2024/01/16 05:35:27;;;;;;;45.83;23.77;;;;;;;-144.30;78.38;86720.66;5072314;28;20225;-61
2024/01/16 05:37:55;;;;;;;54.10;25.00;;;;;;;-144.30;78.17;86724.63;5071198;28;20203;-59
2024/01/16 05:40:22;;;;;;;51.03;24.47;;;;;;;-144.30;78.06;86706.72;5072046;28;20202;-63
2024/01/16 05:42:49;;;;;;;48.33;24.17;;;;;;;-144.30;78.05;86728.59;5072284;28;20196;-63
2024/01/16 05:45:16;;;;;;;53.27;24.87;;;;;;;-144.30;78.60;86704.75;5072411;28;20202;-64
2024/01/16 05:47:43;;;;;;;41.47;23.27;;;;;;;-144.30;78.30;86702.75;5072535;28;20319;-63
2024/01/16 05:50:11;;;;;;;49.97;23.37;;;;;;;-144.30;78.06;86742.53;5072427;28;20204;-63
2024/01/16 05:52:40;;;;;;;39.67;21.57;;;;;;;-144.30;77.70;86738.56;5072137;28;20232;-63
2024/01/16 05:55:08;;;;;;;49.43;23.50;;;;;;;-144.30;77.89;86732.59;5072641;28;20200;-63
2024/01/16 05:57:35;;;;;;;41.37;21.63;;;;;;;-144.30;77.33;86736.56;5071683;28;20329;-63
2024/01/16 06:00:03;;;;;;;40.33;22.00;;;;;;;-144.30;76.80;86706.72;5072205;28;20225;-60
2024/01/16 06:02:30;;;;;;;44.83;21.57;;;;;;;-144.30;76.50;86716.69;5071793;28;20236;-61
2024/01/16 06:04:57;;;;;;;40.63;19.70;;;;;;;-144.30;76.15;86686.84;5072075;28;20588;-60
2024/01/16 06:07:25;;;;;;;44.07;20.77;;;;;;;-144.30;76.30;86684.84;5071671;28;20668;-61
2024/01/16 06:09:52;;;;;;;34.77;18.27;;;;;;;-144.30;75.87;86684.84;5071814;28;20297;-61
2024/01/16 06:12:19;;;;;;;37.10;18.07;;;;;;;-144.30;75.54;86617.25;5071983;28;20203;-60
2024/01/16 06:14:46;;;;;;;40.13;18.93;;;;;;;-144.30;74.58;86641.09;5071915;28;20196;-60
2024/01/16 06:17:13;;;;;;;33.43;17.80;;;;;;;-144.30;74.73;86666.97;5071559;28;20234;-61
2024/01/16 06:19:40;;;;;;;36.90;18.67;;;;;;;-144.30;74.57;86672.94;5071534;28;20195;-60
2024/01/16 06:22:08;;;;;;;35.20;17.83;;;;;;;-144.30;74.32;86664.97;5071601;28;20696;-60
2024/01/16 06:24:37;;;;;;;33.17;17.00;;;;;;;-144.30;74.45;86635.13;5071366;28;20200;-60
2024/01/16 06:27:06;;;;;;;31.60;15.67;;;;;;;-144.30;75.58;86661.00;5071444;28;20188;-59
2024/01/16 06:29:33;;;;;;;29.20;16.43;;;;;;;-144.30;76.11;86625.19;5071292;28;20650;-61
2024/01/16 06:32:00;;;;;;;40.83;17.40;;;;;;;-144.30;76.50;86651.06;5071222;28;20202;-60
2024/01/16 06:34:27;;;;;;;34.03;16.83;;;;;;;-144.30;76.66;86647.06;5071057;28;20196;-60
2024/01/16 06:36:54;;;;;;;26.53;15.43;;;;;;;-144.30;76.89;86645.09;5071023;28;20635;-61
2024/01/16 06:39:21;;;;;;;23.97;14.67;;;;;;;-144.30;77.08;86635.13;5071280;28;20678;-62
2024/01/16 06:41:50;;;;;;;28.67;14.37;;;;;;;-144.30;77.63;86635.13;5071363;28;20191;-64
2024/01/16 06:44:17;;;;;;;21.47;13.70;;;;;;;-144.30;77.82;86597.34;5070838;28;20206;-59
2024/01/16 06:46:44;;;;;;;20.07;11.73;;;;;;;-144.30;78.14;86591.38;5070871;28;20196;-61
2024/01/16 06:49:11;;;;;;;17.57;11.13;;;;;;;-144.30;78.83;86593.38;5070967;28;20221;-61
2024/01/16 06:51:38;;;;;;;18.07;10.80;;;;;;;-144.30;78.69;86605.31;5070773;28;20211;-63
2024/01/16 06:54:05;;;;;;;16.53;9.80;;;;;;;-144.30;78.81;86577.47;5070775;28;20199;-63
2024/01/16 06:56:32;;;;;;;14.90;9.13;;;;;;;-144.30;79.10;86585.44;5070838;28;20216;-63
2024/01/16 06:59:00;;;;;;;12.40;8.77;;;;;;;-144.30;78.85;86557.59;5071032;28;20200;-63
2024/01/16 07:01:28;;;;;;;13.80;8.60;;;;;;;-144.30;78.86;86545.66;5070852;28;20234;-64
2024/01/16 07:03:54;;;;;;;9.27;7.20;;;;;;;-144.30;78.98;86541.69;5070843;28;20196;-64
2024/01/16 07:06:21;;;;;;;10.00;6.73;;;;;;;-144.30;79.32;86541.69;5070754;28;20188;-63
2024/01/16 07:08:48;;;;;;;12.10;7.23;;;;;;;-144.30;78.96;86553.59;5070567;28;20200;-64
2024/01/16 07:11:15;;;;;;;9.83;7.33;;;;;;;-144.30;78.83;86533.72;5070749;28;20199;-62
2024/01/16 07:13:42;;;;;;;8.27;6.53;;;;;;;-144.30;78.72;86535.72;5070515;28;20202;-62
2024/01/16 07:16:12;;;;;;;9.30;6.60;;;;;;;-144.30;79.08;86533.72;5070252;28;20230;-63
2024/01/16 07:18:39;;;;;;;8.77;6.13;;;;;;;-144.30;78.54;86539.69;5070054;28;20207;-63
2024/01/16 07:21:17;;;;;;;11.00;6.23;;;;;;;-144.30;78.81;86521.78;5070615;28;20342;-64
2024/01/16 07:23:44;;;;;;;7.77;5.97;;;;;;;-144.30;78.23;86466.09;5070367;28;20202;-63
2024/01/16 07:26:11;;;;;;;8.53;5.97;;;;;;;-144.30;78.36;86515.81;5070544;28;20196;-63
2024/01/16 07:28:38;;;;;;;7.20;5.87;;;;;;;-144.30;77.75;86511.84;5070117;28;20582;-61
2024/01/16 07:31:05;;;;;;;10.30;6.43;;;;;;;-144.30;77.79;86489.97;5070158;28;20211;-62
2024/01/16 07:33:33;;;;;;;7.40;5.80;;;;;;;-144.30;77.84;86462.13;5069977;28;20204;-62
2024/01/16 07:36:00;;;;;;;6.50;5.80;;;;;;;-144.30;78.04;86486.00;5070157;28;20192;-63
2024/01/16 07:38:27;;;;;;;7.03;5.43;;;;;;;-144.30;77.40;86527.75;5069577;28;20202;-64
2024/01/16 07:40:56;;;;;;;12.10;5.47;;;;;;;-144.30;77.46;86460.16;5070085;28;20295;-64
2024/01/16 07:43:22;;;;;;;8.87;5.90;;;;;;;-144.30;77.87;86499.91;5069937;28;20218;-63
2024/01/16 07:45:49;;;;;;;6.40;5.47;;;;;;;-144.30;77.19;86442.25;5069845;28;20318;-63
2024/01/16 07:48:16;;;;;;;6.33;5.73;;;;;;;-144.30;77.34;86466.09;5069794;28;20283;-65
2024/01/16 07:50:45;;;;;;;6.77;5.70;;;;;;;-144.30;76.86;86472.06;5070008;28;20657;-62
2024/01/16 07:53:12;;;;;;;8.93;6.37;;;;;;;-144.30;76.51;86462.13;5069847;28;20200;-62
2024/01/16 07:55:39;;;;;;;6.37;5.70;;;;;;;-144.30;75.80;86446.22;5069566;28;20206;-61
2024/01/16 07:58:06;;;;;;;9.17;5.90;;;;;;;-144.30;76.17;86484.00;5069659;28;20307;-64
2024/01/16 08:00:33;;;;;;;9.67;5.90;;;;;;;-144.30;75.12;86478.03;5068979;28;20202;-64
2024/01/16 08:03:00;;;;;;;10.17;6.47;;;;;;;-144.30;74.83;86474.06;5069244;28;20232;-60
2024/01/16 08:05:27;;;;;;;7.60;6.27;;;;;;;-144.30;74.29;86438.28;5069388;28;20196;-63
2024/01/16 08:07:55;;;;;;;8.40;6.33;;;;;;;-144.30;73.86;86366.69;5069786;28;20192;-64
2024/01/16 08:10:22;;;;;;;8.47;5.70;;;;;;;-144.30;73.47;86422.38;5069343;28;20219;-64
2024/01/16 08:12:49;;;;;;;13.70;6.27;;;;;;;-144.30;72.86;86484.00;5069638;28;20210;-64
2024/01/16 08:15:16;;;;;;;8.97;4.93;;;;;;;-144.30;72.48;86468.09;5069499;28;20199;-64
2024/01/16 08:17:43;;;;;;;5.40;4.90;;;;;;;-144.30;72.36;86478.03;5069352;28;20226;-65
2024/01/16 08:20:11;;;;;;;7.87;4.90;;;;;;;-144.30;72.22;86440.25;5069327;28;20199;-64
2024/01/16 08:22:38;;;;;;;7.07;4.70;;;;;;;-144.30;71.58;86434.28;5069356;28;20202;-63
2024/01/16 08:25:08;;;;;;;5.23;4.83;;;;;;;-144.30;71.35;86434.28;5069621;28;20668;-63
2024/01/16 08:27:37;;;;;;;5.40;4.13;;;;;;;-144.30;71.40;86466.09;5069342;28;20716;-63
2024/01/16 08:30:07;;;;;;;8.10;4.40;;;;;;;-144.30;71.31;86466.09;5069782;28;20199;-64
2024/01/16 08:32:33;;;;;;;7.40;4.87;;;;;;;-144.30;70.49;86404.47;5069392;28;20200;-62
2024/01/16 08:35:00;;;;;;;6.23;4.87;;;;;;;-144.30;70.76;85798.03;5069376;28;20258;-64
2024/01/16 08:37:27;;;;;;;5.47;4.93;;;;;;;-144.30;69.84;86398.50;5069389;28;20233;-62
2024/01/16 08:39:54;;;;;;;5.57;5.10;;;;;;;-144.30;69.09;86378.63;5069452;28;20633;-64
2024/01/16 08:42:23;;;;;;;5.20;4.70;;;;;;;-144.30;67.89;86382.59;5069514;28;20200;-64
2024/01/16 08:44:49;;;;;;;6.23;4.80;;;;;;;-144.30;67.05;86370.66;5069627;28;20668;-64
2024/01/16 08:47:16;;;;;;;11.00;3.97;;;;;;;-144.30;66.24;86378.63;5069485;28;20667;-64
2024/01/16 08:49:43;;;;;;;9.37;3.67;;;;;;;-144.30;65.44;86283.16;5069428;28;20196;-64
2024/01/16 08:52:10;;;;;;;7.83;4.73;;;;;;;-144.30;65.12;86334.88;5069242;28;20231;-64
2024/01/16 08:54:37;;;;;;;4.17;3.77;;;;;;;-144.30;64.50;86362.72;5068918;28;20207;-63
2024/01/16 08:57:05;;;;;;;4.50;4.10;;;;;;;-144.30;64.29;86326.91;5069330;28;20220;-62
2024/01/16 08:59:33;;;;;;;4.80;4.33;;;;;;;-144.30;64.14;86342.81;5069310;28;20637;-63
2024/01/16 09:02:00;;;;;;;4.67;4.17;;;;;;;-144.30;63.51;86362.72;5069251;28;20232;-63
2024/01/16 09:04:27;;;;;;;4.40;4.00;;;;;;;-144.30;63.30;86332.88;5069061;28;20204;-60
2024/01/16 09:06:54;;;;;;;7.07;4.13;;;;;;;-144.30;63.64;86370.66;5069256;28;20192;-64
2024/01/16 09:09:21;;;;;;;8.33;4.80;;;;;;;-144.30;63.70;86364.69;5068973;28;20298;-62
2024/01/16 09:11:48;;;;;;;5.93;3.83;;;;;;;-144.30;62.95;86348.78;5069232;28;20203;-63
2024/01/16 09:14:15;;;;;;;5.93;4.40;;;;;;;-144.30;62.85;86311.00;5071546;28;20584;-63
2024/01/16 09:16:43;;;;;;;8.47;3.93;;;;;;;-144.30;62.17;86301.06;5072620;28;20215;-63
2024/01/16 09:19:10;;;;;;;8.37;3.93;;;;;;;-144.30;61.89;86330.88;5072891;28;20580;-62
2024/01/16 09:21:37;;;;;;;4.70;4.20;;;;;;;-144.30;61.64;86322.94;5072324;28;20205;-61
2024/01/16 09:24:04;;;;;;;5.00;3.57;;;;;;;-144.30;60.85;86334.88;5072625;28;20287;-62
2024/01/16 09:26:31;;;;;;;3.77;3.20;;;;;;;-144.30;59.88;86322.94;5072650;28;20196;-62
2024/01/16 09:28:58;;;;;;;5.73;3.10;;;;;;;-144.30;59.17;86269.25;5072853;28;20200;-62
2024/01/16 09:31:25;;;;;;;3.53;2.57;;;;;;;-144.30;57.74;86301.06;5072294;28;20200;-62
2024/01/16 09:33:54;;;;;;;7.30;2.83;;;;;;;-144.30;57.26;86263.28;5072434;28;20204;-61
2024/01/16 09:36:21;;;;;;;3.67;2.60;;;;;;;-144.30;56.69;86265.28;5072191;28;20692;-61
2024/01/16 09:38:48;;;;;;;9.00;3.30;;;;;;;-144.30;56.64;86283.16;5072284;28;20200;-62
2024/01/16 09:41:15;;;;;;;3.40;3.00;;;;;;;-144.30;55.51;86024.69;5072374;28;20723;-61
2024/01/16 09:43:42;;;;;;;4.33;2.80;;;;;;;-144.30;54.93;86225.50;5072136;28;20196;-61
2024/01/16 09:46:10;;;;;;;5.23;3.07;;;;;;;-144.30;54.78;86251.34;5072283;28;20192;-62
2024/01/16 09:48:37;;;;;;;10.03;3.27;;;;;;;-144.30;54.19;86259.31;5072060;28;20192;-63
2024/01/16 09:51:06;;;;;;;6.67;2.80;;;;;;;-144.30;54.16;86243.41;5072242;28;20196;-64
2024/01/16 09:53:32;;;;;;;5.30;2.77;;;;;;;-144.30;53.89;86217.56;5072034;28;20200;-63
2024/01/16 09:56:04;;;;;;;5.83;2.90;;;;;;;-144.30;53.84;86215.56;5072176;28;20686;-64
2024/01/16 09:58:36;;;;;;;6.00;3.10;;;;;;;-144.30;53.32;86179.78;5071885;28;20298;-63
2024/01/16 10:01:04;;;;;;;5.20;2.90;;;;;;;-144.30;52.46;86219.53;5071754;28;20247;-64
2024/01/16 10:03:32;;;;;;;5.03;2.57;;;;;;;-144.30;51.88;86177.78;5065786;28;20218;-64
2024/01/16 10:06:01;;;;;;;2.67;2.07;;;;;;;-144.30;51.67;86177.78;5064128;28;20632;-64
2024/01/16 10:08:31;;;;;;;14.00;3.00;;;;;;;-144.30;51.10;86207.59;5071278;28;20279;-63
2024/01/16 10:10:58;;;;;;;10.80;2.50;;;;;;;-144.30;51.36;86179.78;5063871;28;20697;-63
2024/01/16 10:13:26;;;;;;;6.57;2.50;;;;;;;-144.30;50.93;86124.09;5063123;28;20592;-62
2024/01/16 10:15:55;;;;;;;5.47;2.93;;;;;;;-144.30;50.92;86223.50;5059576;28;20878;-63
2024/01/16 10:18:26;;;;;;;9.30;3.83;;;;;;;-144.30;50.87;86185.72;5058069;28;20216;-63
2024/01/16 10:20:53;;;;;;;4.77;3.03;;;;;;;-144.30;50.62;87020.97;5070430;28;20196;-64
2024/01/16 10:23:24;;;;;;;9.77;2.83;;;;;;;-144.30;50.26;86229.47;5051383;28;20197;-61
2024/01/16 10:28:47;;;;;;;5.93;2.93;;;;;;;-144.30;50.50;86195.69;5087036;27;20552;-60
2024/01/16 10:31:15;;;;;;;21.83;3.53;;;;;;;-144.30;50.36;86219.53;5086839;28;20634;-61
2024/01/16 10:33:42;;;;;;;7.57;2.50;;;;;;;-144.30;50.74;86191.69;5085864;28;20206;-61
2024/01/16 10:36:10;;;;;;;2.60;2.40;;;;;;;-144.30;50.55;86181.75;5087165;28;20568;-61
2024/01/16 10:38:39;;;;;;;4.23;2.47;;;;;;;-144.30;50.78;86213.56;5086965;28;20679;-62
2024/01/16 10:41:07;;;;;;;13.97;2.70;;;;;;;-144.30;50.72;86159.88;5087522;28;20629;-62
2024/01/16 10:43:34;;;;;;;17.47;3.83;;;;;;;-144.30;50.64;86201.66;5087164;28;20285;-61
2024/01/16 10:46:11;;;;;;;3.00;2.80;;;;;;;-144.30;50.62;86253.34;5086933;28;20575;-60
2024/01/16 10:48:39;;;;;;;8.30;3.20;;;;;;;-144.30;50.94;86191.69;5086076;28;20219;-61
2024/01/16 10:51:08;;;;;;;7.50;3.00;;;;;;;-144.30;50.89;86217.56;5087466;28;20554;-63
2024/01/16 10:53:36;;;;;;;4.23;2.67;;;;;;;-144.30;51.18;86191.69;5086717;28;20268;-64
2024/01/16 10:56:06;;;;;;;4.33;2.60;;;;;;;-144.30;51.12;86263.28;5086576;28;20202;-62
2024/01/16 10:58:34;;;;;;;25.43;4.70;;;;;;;-144.30;51.39;86229.47;5086188;28;20286;-62
2024/01/16 11:01:04;;;;;;;10.43;3.10;;;;;;;-144.30;51.34;86255.34;5086349;28;20286;-61
2024/01/16 11:03:39;;;;;;;4.23;3.00;;;;;;;-144.30;51.31;86267.25;5085746;28;20196;-63
2024/01/16 11:06:08;;;;;;;4.40;2.93;;;;;;;-144.30;51.96;86295.09;5086547;28;20194;-61
2024/01/16 11:08:37;;;;;;;5.50;2.27;;;;;;;-144.30;51.98;86503.91;5086591;28;20220;-60
2024/01/16 11:11:06;;;;;;;8.43;2.80;;;;;;;-144.30;52.61;87309.38;5086532;28;20191;-60